createdAt,value
2022-12-21T00:02:14.959Z,2.90
2022-12-21T00:04:44.268Z,2.90
2022-12-21T00:07:13.062Z,2.90
2022-12-21T00:09:40.439Z,2.80
2022-12-21T00:12:07.352Z,2.80
2022-12-21T00:14:34.222Z,2.80
2022-12-21T00:17:01.138Z,2.80
2022-12-21T00:19:27.955Z,2.80
2022-12-21T00:21:54.805Z,2.80
2022-12-21T00:24:21.663Z,2.90
2022-12-21T00:26:48.473Z,2.90
2022-12-21T00:29:15.345Z,2.90
2022-12-21T00:31:42.197Z,2.90
2022-12-21T00:34:13.684Z,2.80
2022-12-21T00:36:40.495Z,2.80
2022-12-21T00:39:07.288Z,2.70
2022-12-21T00:41:34.073Z,2.70
2022-12-21T00:44:00.878Z,2.80
2022-12-21T00:46:33.971Z,2.80
2022-12-21T00:49:06.432Z,2.80
2022-12-21T00:51:34.843Z,2.80
2022-12-21T00:54:01.785Z,2.80
2022-12-21T00:56:29.342Z,2.70
2022-12-21T00:58:56.459Z,2.70
2022-12-21T01:01:32.457Z,2.70
2022-12-21T01:04:00.557Z,2.70
2022-12-21T01:06:31.566Z,2.70
2022-12-21T01:08:58.624Z,2.70
2022-12-21T01:11:27.168Z,2.70
2022-12-21T01:14:08.301Z,2.70
2022-12-21T01:16:40.772Z,2.70
2022-12-21T01:19:08.870Z,2.70
2022-12-21T01:21:36.007Z,2.80
2022-12-21T01:24:03.091Z,2.70
2022-12-21T01:26:30.585Z,2.80
2022-12-21T01:28:58.117Z,2.80
2022-12-21T01:31:25.597Z,2.80
2022-12-21T01:33:52.528Z,2.80
2022-12-21T01:36:19.602Z,2.80
2022-12-21T01:38:47.670Z,2.80
2022-12-21T01:41:20.429Z,2.70
2022-12-21T01:43:53.040Z,2.70
2022-12-21T01:46:34.698Z,2.60
2022-12-21T01:49:15.997Z,2.70
2022-12-21T01:51:45.827Z,2.70
2022-12-21T01:54:20.873Z,2.70
2022-12-21T01:56:51.552Z,2.70
2022-12-21T01:59:37.720Z,2.70
2022-12-21T02:02:16.617Z,2.80
2022-12-21T02:04:43.966Z,2.80
2022-12-21T02:07:11.247Z,2.80
2022-12-21T02:09:38.149Z,2.80
2022-12-21T02:12:07.507Z,2.80
2022-12-21T02:14:40.488Z,2.80
2022-12-21T02:17:41.509Z,2.80
2022-12-21T02:20:45.697Z,2.80
2022-12-21T02:23:53.858Z,2.80
2022-12-21T02:26:38.900Z,2.80
2022-12-21T02:29:24.534Z,2.70
2022-12-21T02:32:26.425Z,2.80
2022-12-21T02:35:25.570Z,2.80
2022-12-21T02:38:47.769Z,2.80
2022-12-21T02:41:36.380Z,2.80
2022-12-21T02:44:32.194Z,2.70
2022-12-21T02:47:09.255Z,2.70
2022-12-21T02:49:54.962Z,2.70
2022-12-21T02:52:36.610Z,2.60
2022-12-21T02:55:04.432Z,2.70
2022-12-21T02:57:40.964Z,2.80
2022-12-21T03:00:10.975Z,2.70
2022-12-21T03:03:13.007Z,2.80
2022-12-21T03:06:05.852Z,2.80
2022-12-21T03:08:54.193Z,2.70
2022-12-21T03:11:24.660Z,2.70
2022-12-21T03:14:09.290Z,2.60
2022-12-21T03:16:42.261Z,2.70
2022-12-21T03:19:27.429Z,2.60
2022-12-21T03:22:02.827Z,2.70
2022-12-21T03:24:38.159Z,2.70
2022-12-21T03:27:15.017Z,2.70
2022-12-21T03:29:48.945Z,2.70
2022-12-21T03:32:20.739Z,2.80
2022-12-21T03:34:52.054Z,2.80
2022-12-21T03:37:25.683Z,2.80
2022-12-21T03:40:04.873Z,2.80
2022-12-21T03:42:36.205Z,2.70
2022-12-21T03:45:08.567Z,2.70
2022-12-21T03:47:42.505Z,2.80
2022-12-21T03:50:20.836Z,2.70
2022-12-21T03:52:54.022Z,2.60
2022-12-21T03:55:30.051Z,2.70
2022-12-21T03:57:58.130Z,2.70
2022-12-21T04:00:27.733Z,2.70
2022-12-21T04:03:06.185Z,2.70
2022-12-21T04:05:53.189Z,2.70
2022-12-21T04:08:20.628Z,2.70
2022-12-21T04:10:49.195Z,2.60
2022-12-21T04:13:16.839Z,2.60
2022-12-21T04:16:02.110Z,2.70
2022-12-21T04:18:47.812Z,2.60
2022-12-21T04:21:14.650Z,2.60
2022-12-21T04:23:59.800Z,2.60
2022-12-21T04:26:45.064Z,2.60
2022-12-21T04:29:11.845Z,2.60
2022-12-21T04:31:41.200Z,2.60
2022-12-21T04:34:08.053Z,2.50
2022-12-21T04:36:53.548Z,2.60
2022-12-21T04:39:20.375Z,2.50
2022-12-21T04:41:47.162Z,2.40
2022-12-21T04:44:14.066Z,2.30
2022-12-21T04:46:40.885Z,2.30
2022-12-21T04:49:07.683Z,2.40
2022-12-21T04:51:34.558Z,2.40
2022-12-21T04:54:03.703Z,2.30
2022-12-21T04:56:30.784Z,2.30
2022-12-21T04:58:57.567Z,2.30
2022-12-21T05:01:24.511Z,2.40
2022-12-21T05:03:52.551Z,2.30
2022-12-21T05:06:20.217Z,2.30
2022-12-21T05:08:47.332Z,2.20
2022-12-21T05:11:20.640Z,2.30
2022-12-21T05:13:48.226Z,2.20
2022-12-21T05:16:19.999Z,2.20
2022-12-21T05:18:49.477Z,2.20
2022-12-21T05:21:17.747Z,2.20
2022-12-21T05:23:45.002Z,2.20
2022-12-21T05:26:15.816Z,2.30
2022-12-21T05:28:45.156Z,2.20
2022-12-21T05:31:13.115Z,2.20
2022-12-21T05:33:39.959Z,2.20
2022-12-21T05:36:09.441Z,2.20
2022-12-21T05:38:36.463Z,2.20
2022-12-21T05:41:05.048Z,2.10
2022-12-21T05:43:32.225Z,2.10
2022-12-21T05:46:04.288Z,2.10
2022-12-21T05:48:31.939Z,2.10
2022-12-21T05:50:58.980Z,2.00
2022-12-21T05:53:25.967Z,2.10
2022-12-21T05:55:53.183Z,2.20
2022-12-21T05:58:20.402Z,2.10
2022-12-21T06:00:47.681Z,2.10
2022-12-21T06:03:17.248Z,2.10
2022-12-21T06:05:44.761Z,2.10
2022-12-21T06:08:13.951Z,2.20
2022-12-21T06:10:40.728Z,2.10
2022-12-21T06:13:07.582Z,2.10
2022-12-21T06:15:34.805Z,2.10
2022-12-21T06:18:04.871Z,2.10
2022-12-21T06:20:32.688Z,2.10
2022-12-21T06:22:59.477Z,2.10
2022-12-21T06:25:28.474Z,2.20
2022-12-21T06:27:55.226Z,2.30
2022-12-21T06:30:22.098Z,2.30
2022-12-21T06:32:49.001Z,2.20
2022-12-21T06:35:16.091Z,2.30
2022-12-21T06:37:42.885Z,2.30
2022-12-21T06:40:10.011Z,2.40
2022-12-21T06:42:36.935Z,2.40
2022-12-21T06:45:04.048Z,2.40
2022-12-21T06:47:30.882Z,2.40
2022-12-21T06:49:57.655Z,2.40
2022-12-21T06:52:24.505Z,2.40
2022-12-21T06:54:51.292Z,2.40
2022-12-21T06:57:18.122Z,2.40
2022-12-21T06:59:44.970Z,2.40
2022-12-21T07:02:12.084Z,2.40
2022-12-21T07:04:39.126Z,2.40
2022-12-21T07:07:05.942Z,2.40
2022-12-21T07:09:32.812Z,2.50
2022-12-21T07:11:59.933Z,2.50
2022-12-21T07:14:26.855Z,2.50
2022-12-21T07:16:53.733Z,2.50
2022-12-21T07:19:20.551Z,2.40
2022-12-21T07:21:47.385Z,2.40
2022-12-21T07:24:14.292Z,2.50
2022-12-21T07:26:41.115Z,2.60
2022-12-21T07:29:12.640Z,2.50
2022-12-21T07:31:39.698Z,2.60
2022-12-21T07:34:06.752Z,2.80
2022-12-21T07:36:36.335Z,2.90
2022-12-21T07:39:03.426Z,2.90
2022-12-21T07:41:30.462Z,2.80
2022-12-21T07:43:57.289Z,2.80
2022-12-21T07:46:24.195Z,2.80
2022-12-21T07:48:52.011Z,2.90
2022-12-21T07:51:18.869Z,2.90
2022-12-21T07:53:45.834Z,2.90
2022-12-21T07:56:16.230Z,2.90
2022-12-21T07:58:43.216Z,2.90
2022-12-21T08:01:13.025Z,2.90
2022-12-21T08:03:41.105Z,2.90
2022-12-21T08:06:08.553Z,3.00
2022-12-21T08:08:36.870Z,3.00
2022-12-21T08:11:04.520Z,3.00
2022-12-21T08:13:32.723Z,3.00
2022-12-21T08:16:02.815Z,2.90
2022-12-21T08:18:30.025Z,3.00
2022-12-21T08:20:57.597Z,3.10
2022-12-21T08:23:25.792Z,3.00
2022-12-21T08:25:53.008Z,3.00
2022-12-21T08:28:20.293Z,3.00
2022-12-21T08:30:47.221Z,3.10
2022-12-21T08:33:14.632Z,3.20
2022-12-21T08:35:44.222Z,3.20
2022-12-21T08:38:21.518Z,3.20
2022-12-21T08:41:02.890Z,3.20
2022-12-21T08:43:30.140Z,3.30
2022-12-21T08:45:57.364Z,3.20
2022-12-21T08:48:28.224Z,3.30
2022-12-21T08:50:57.275Z,3.30
2022-12-21T08:53:24.420Z,3.30
2022-12-21T08:55:51.741Z,3.30
2022-12-21T08:58:18.846Z,3.30
2022-12-21T09:00:47.937Z,3.30
2022-12-21T09:03:14.927Z,3.30
2022-12-21T09:05:47.010Z,3.40
2022-12-21T09:08:14.194Z,3.50
2022-12-21T09:10:40.992Z,3.60
2022-12-21T09:13:07.859Z,3.50
2022-12-21T09:15:45.420Z,3.50
2022-12-21T09:18:12.753Z,3.60
2022-12-21T09:20:39.918Z,3.80
2022-12-21T09:23:06.699Z,3.80
2022-12-21T09:25:35.142Z,3.70
2022-12-21T09:28:02.455Z,3.70
2022-12-21T09:30:30.770Z,3.70
2022-12-21T09:32:58.164Z,3.80
2022-12-21T09:35:25.148Z,3.70
2022-12-21T09:37:52.454Z,3.80
2022-12-21T09:40:20.857Z,3.70
2022-12-21T09:43:18.738Z,3.80
2022-12-21T09:46:44.585Z,3.80
2022-12-21T09:49:19.397Z,3.80
2022-12-21T09:51:52.729Z,4.00
2022-12-21T09:54:23.525Z,3.90
2022-12-21T09:56:53.515Z,3.90
2022-12-21T09:59:22.369Z,3.90
2022-12-21T10:02:11.484Z,4.10
2022-12-21T10:05:12.085Z,4.00
2022-12-21T10:08:00.243Z,4.00
2022-12-21T10:10:54.962Z,4.20
2022-12-21T10:13:30.807Z,4.00
2022-12-21T10:16:28.417Z,4.20
2022-12-21T10:19:23.904Z,4.10
2022-12-21T10:22:11.549Z,4.20
2022-12-21T10:24:57.920Z,4.20
2022-12-21T10:27:42.953Z,4.20
2022-12-21T10:30:14.503Z,4.40
2022-12-21T10:32:53.403Z,4.30
2022-12-21T10:35:36.935Z,4.30
2022-12-21T10:38:15.621Z,4.40
2022-12-21T10:40:44.801Z,4.40
2022-12-21T10:43:13.424Z,4.40
2022-12-21T10:45:40.972Z,4.40
2022-12-21T10:48:09.079Z,4.40
2022-12-21T10:54:11.668Z,4.40
2022-12-21T10:57:34.221Z,4.50
2022-12-21T11:00:31.888Z,4.50
2022-12-21T11:03:08.916Z,4.40
2022-12-21T11:05:46.984Z,4.30
2022-12-21T11:08:31.473Z,4.30
2022-12-21T11:11:03.507Z,4.20
2022-12-21T11:13:32.835Z,4.30
2022-12-21T11:16:10.986Z,4.50
2022-12-21T11:18:44.717Z,4.40
2022-12-21T11:30:38.301Z,4.60
2022-12-21T11:33:07.844Z,4.60
2022-12-21T11:35:35.517Z,4.70
2022-12-21T11:38:15.715Z,4.60
2022-12-21T11:40:55.753Z,4.60
2022-12-21T11:43:22.655Z,4.60
2022-12-21T11:46:48.129Z,4.60
2022-12-21T11:49:29.920Z,4.60
2022-12-21T11:52:09.759Z,4.60
2022-12-21T11:55:20.975Z,4.50
2022-12-21T11:57:55.175Z,4.50
2022-12-21T12:03:30.557Z,4.60
2022-12-21T12:06:10.957Z,4.60
2022-12-21T12:08:40.922Z,4.60
2022-12-21T12:11:36.908Z,4.60
2022-12-21T12:14:19.907Z,4.60
2022-12-21T12:17:33.976Z,4.60
2022-12-21T12:20:00.730Z,4.60
2022-12-21T12:22:37.455Z,4.60
2022-12-21T12:25:16.139Z,4.60
2022-12-21T12:28:09.457Z,4.60
2022-12-21T12:31:00.224Z,4.50
2022-12-21T12:33:49.484Z,4.60
2022-12-21T12:36:43.497Z,4.50
2022-12-21T12:39:30.270Z,4.60
2022-12-21T12:42:10.964Z,4.50
2022-12-21T12:45:10.661Z,4.50
2022-12-21T12:48:16.128Z,4.50
2022-12-21T12:50:56.162Z,4.50
2022-12-21T12:53:43.216Z,4.50
2022-12-21T12:56:42.256Z,4.50
2022-12-21T12:59:13.203Z,4.60
2022-12-21T13:01:56.013Z,4.50
2022-12-21T13:04:47.269Z,4.50
2022-12-21T13:07:57.187Z,4.50
2022-12-21T13:10:37.879Z,4.50
2022-12-21T13:13:33.322Z,4.50
2022-12-21T13:16:37.525Z,4.50
2022-12-21T13:19:09.014Z,4.60
2022-12-21T13:21:41.975Z,4.60
2022-12-21T13:24:15.985Z,4.70
2022-12-21T13:26:53.457Z,4.70
2022-12-21T13:29:37.439Z,4.80
2022-12-21T13:32:09.679Z,4.70
2022-12-21T13:35:15.540Z,4.70
2022-12-21T13:37:43.823Z,4.60
2022-12-21T13:40:13.617Z,4.60
2022-12-21T13:43:01.635Z,4.60
2022-12-21T13:45:45.162Z,4.60
2022-12-21T13:48:17.396Z,4.60
2022-12-21T13:51:15.323Z,4.50
2022-12-21T13:53:47.720Z,4.40
2022-12-21T13:56:50.514Z,4.40
2022-12-21T13:59:47.394Z,4.40
2022-12-21T14:02:48.224Z,4.40
2022-12-21T14:05:21.383Z,4.40
2022-12-21T14:07:54.276Z,4.40
2022-12-21T14:10:52.639Z,4.40
2022-12-21T14:13:19.430Z,4.30
2022-12-21T14:16:14.445Z,4.20
2022-12-21T14:18:42.211Z,4.20
2022-12-21T14:21:24.848Z,4.30
2022-12-21T14:23:59.456Z,4.10
2022-12-21T14:26:38.335Z,4.10
2022-12-21T14:29:39.745Z,4.10
2022-12-21T14:32:17.331Z,4.10
2022-12-21T14:35:04.454Z,4.20
2022-12-21T14:37:34.174Z,4.10
2022-12-21T14:40:17.709Z,4.20
2022-12-21T14:42:50.160Z,4.00
2022-12-21T14:45:18.762Z,4.00
2022-12-21T14:47:53.030Z,4.00
2022-12-21T14:50:20.457Z,3.90
2022-12-21T14:53:01.999Z,3.90
2022-12-21T14:55:43.908Z,3.80
2022-12-21T14:58:23.323Z,3.80
2022-12-21T15:01:13.156Z,3.70
2022-12-21T15:03:56.131Z,3.60
2022-12-21T15:06:31.420Z,3.60
2022-12-21T15:09:23.882Z,3.50
2022-12-21T15:11:54.891Z,3.50
2022-12-21T15:14:36.087Z,3.40
2022-12-21T15:17:17.530Z,3.40
2022-12-21T15:19:58.213Z,3.40
2022-12-21T15:22:57.164Z,3.30
2022-12-21T15:25:28.235Z,3.20
2022-12-21T15:28:04.194Z,3.20
2022-12-21T15:30:35.768Z,3.20
2022-12-21T15:33:16.048Z,3.20
2022-12-21T15:35:54.027Z,3.10
2022-12-21T15:38:22.443Z,3.10
2022-12-21T15:41:02.000Z,3.10
2022-12-21T15:43:45.995Z,3.10
2022-12-21T15:46:18.822Z,3.10
2022-12-21T15:48:56.961Z,3.10
2022-12-21T15:51:30.074Z,3.00
2022-12-21T15:54:11.885Z,3.00
2022-12-21T15:56:40.323Z,3.10
2022-12-21T15:59:17.069Z,3.10
2022-12-21T16:01:50.594Z,3.00
2022-12-21T16:04:18.126Z,3.00
2022-12-21T16:06:53.086Z,3.00
2022-12-21T16:09:34.676Z,3.00
2022-12-21T16:12:20.290Z,2.90
2022-12-21T16:15:04.021Z,2.90
2022-12-21T16:17:30.907Z,3.00
2022-12-21T16:19:59.283Z,2.90
2022-12-21T16:22:29.761Z,2.90
2022-12-21T16:27:50.696Z,2.90
2022-12-21T16:30:17.967Z,2.90
2022-12-21T16:32:45.412Z,2.90
2022-12-21T16:35:26.060Z,2.90
2022-12-21T16:37:53.304Z,2.90
2022-12-21T16:40:26.789Z,2.80
2022-12-21T16:42:59.792Z,2.80
2022-12-21T16:45:29.632Z,2.80
2022-12-21T16:48:39.586Z,2.80
2022-12-21T16:51:06.462Z,2.80
2022-12-21T16:53:36.224Z,2.80
2022-12-21T16:56:18.103Z,2.80
2022-12-21T16:58:53.820Z,2.80
2022-12-21T17:01:28.183Z,2.80
2022-12-21T17:04:07.809Z,2.80
2022-12-21T17:06:45.289Z,2.80
2022-12-21T17:09:17.716Z,2.80
2022-12-21T17:11:57.696Z,2.70
2022-12-21T17:14:25.834Z,2.70
2022-12-21T17:17:13.714Z,2.80
2022-12-21T17:20:02.878Z,2.80
2022-12-21T17:22:31.187Z,2.70
2022-12-21T17:25:14.468Z,2.70
2022-12-21T17:28:00.193Z,2.70
2022-12-21T17:30:41.634Z,2.70
2022-12-21T17:33:28.102Z,2.70
2022-12-21T17:35:55.833Z,2.80
2022-12-21T17:38:23.635Z,2.80
2022-12-21T17:40:50.881Z,2.70
2022-12-21T17:43:17.928Z,2.70
2022-12-21T17:45:47.914Z,2.80
2022-12-21T17:48:19.561Z,2.80
2022-12-21T17:50:50.252Z,2.80
2022-12-21T17:53:21.797Z,2.80
2022-12-21T17:55:49.118Z,2.80
2022-12-21T17:58:17.037Z,2.70
2022-12-21T18:00:45.490Z,2.80
2022-12-21T18:03:27.948Z,2.80
2022-12-21T18:05:56.357Z,2.70
2022-12-21T18:08:24.208Z,2.70
2022-12-21T18:10:51.171Z,2.70
2022-12-21T18:13:18.111Z,2.70
2022-12-21T18:15:55.720Z,2.70
2022-12-21T18:18:26.842Z,2.70
2022-12-21T18:20:54.749Z,2.70
2022-12-21T18:23:24.690Z,2.80
2022-12-21T18:25:53.034Z,2.80
2022-12-21T18:28:21.684Z,2.80
2022-12-21T18:30:54.293Z,2.80
2022-12-21T18:33:22.106Z,2.80
2022-12-21T18:35:49.073Z,2.80
2022-12-21T18:38:28.249Z,2.80
2022-12-21T18:40:55.111Z,2.70
2022-12-21T18:43:30.857Z,2.70
2022-12-21T18:46:25.439Z,2.80
2022-12-21T18:48:59.654Z,2.80
2022-12-21T18:51:35.474Z,2.80
2022-12-21T18:54:02.373Z,2.80
2022-12-21T18:56:31.594Z,2.80
2022-12-21T18:58:58.407Z,2.80
2022-12-21T19:01:30.910Z,2.80
2022-12-21T19:03:58.569Z,2.80
2022-12-21T19:06:29.373Z,2.80
2022-12-21T19:09:07.864Z,2.80
2022-12-21T19:11:34.723Z,2.80
2022-12-21T19:14:02.932Z,2.80
2022-12-21T19:16:36.093Z,2.70
2022-12-21T19:19:11.680Z,2.80
2022-12-21T19:21:38.751Z,2.80
2022-12-21T19:24:14.313Z,2.80
2022-12-21T19:26:41.822Z,2.80
2022-12-21T19:29:20.156Z,2.80
2022-12-21T19:31:48.497Z,2.80
2022-12-21T19:34:15.958Z,2.70
2022-12-21T19:36:46.510Z,2.80
2022-12-21T19:39:32.633Z,2.80
2022-12-21T19:42:09.871Z,2.80
2022-12-21T19:44:38.259Z,2.70
2022-12-21T19:47:06.475Z,2.80
2022-12-21T19:49:35.855Z,2.80
2022-12-21T19:52:03.070Z,2.80
2022-12-21T19:54:29.998Z,2.80
2022-12-21T19:57:00.961Z,2.80
2022-12-21T19:59:28.582Z,2.80
2022-12-21T20:01:59.505Z,2.80
2022-12-21T20:04:28.409Z,2.80
2022-12-21T20:06:55.748Z,2.90
2022-12-21T20:09:28.234Z,2.90
2022-12-21T20:11:56.563Z,2.90
2022-12-21T20:14:39.338Z,2.90
2022-12-21T20:17:24.644Z,2.80
2022-12-21T20:19:51.571Z,2.80
2022-12-21T20:22:19.793Z,2.80
2022-12-21T20:24:48.381Z,2.80
2022-12-21T20:27:25.257Z,2.80
2022-12-21T20:29:52.103Z,2.80
2022-12-21T20:32:19.060Z,2.80
2022-12-21T20:34:46.072Z,2.80
2022-12-21T20:37:14.608Z,2.80
2022-12-21T20:39:41.897Z,2.80
2022-12-21T20:42:45.275Z,2.70
2022-12-21T20:45:34.075Z,2.80
2022-12-21T20:48:00.985Z,2.80
2022-12-21T20:50:35.659Z,2.80
2022-12-21T20:53:07.099Z,2.80
2022-12-21T20:55:52.435Z,2.70
2022-12-21T20:59:15.680Z,2.80
2022-12-21T21:02:23.171Z,2.80
2022-12-21T21:04:53.714Z,2.80
2022-12-21T21:07:25.209Z,2.70
2022-12-21T21:10:02.600Z,2.70
2022-12-21T21:12:29.491Z,2.80
2022-12-21T21:15:05.239Z,2.80
2022-12-21T21:17:36.009Z,2.70
2022-12-21T21:20:04.511Z,2.70
2022-12-21T21:22:57.474Z,2.70
2022-12-21T21:25:44.140Z,2.80
2022-12-21T21:28:37.089Z,2.70
2022-12-21T21:31:06.628Z,2.80
2022-12-21T21:33:36.653Z,2.80
2022-12-21T21:36:12.881Z,2.80
2022-12-21T21:39:08.094Z,2.80
2022-12-21T21:41:48.507Z,2.90
2022-12-21T21:44:39.746Z,2.80
2022-12-21T21:47:35.319Z,2.90
2022-12-21T21:53:16.587Z,2.70
2022-12-21T21:55:53.425Z,2.70
2022-12-21T21:58:23.584Z,2.80
2022-12-21T22:00:50.931Z,2.90
2022-12-21T22:03:21.177Z,2.80
2022-12-21T22:05:48.406Z,2.80
2022-12-21T22:08:15.253Z,2.70
2022-12-21T22:10:42.442Z,2.70
2022-12-21T22:13:21.267Z,2.80
2022-12-21T22:15:54.101Z,2.80
2022-12-21T22:18:30.407Z,2.80
2022-12-21T22:21:17.371Z,2.80
2022-12-21T22:24:03.934Z,2.90
2022-12-21T22:27:01.145Z,2.90
2022-12-21T22:30:03.331Z,2.90
2022-12-21T22:32:42.445Z,2.90
2022-12-21T22:35:40.743Z,2.90
2022-12-21T22:38:27.981Z,2.90
2022-12-21T22:41:21.795Z,2.90
2022-12-21T22:43:48.731Z,2.90
2022-12-21T22:46:15.620Z,2.90
2022-12-21T22:48:42.427Z,2.90
2022-12-21T22:51:26.679Z,2.90
2022-12-21T22:54:05.609Z,2.90
2022-12-21T22:56:34.693Z,3.00
2022-12-21T22:59:06.344Z,2.90
2022-12-21T23:01:34.541Z,2.90
2022-12-21T23:04:02.312Z,2.80
2022-12-21T23:06:29.312Z,2.80
2022-12-21T23:08:56.226Z,2.80
2022-12-21T23:11:31.371Z,2.80
2022-12-21T23:14:21.251Z,2.80
2022-12-21T23:16:48.192Z,2.80
2022-12-21T23:19:15.235Z,2.90
2022-12-21T23:22:01.161Z,2.80
2022-12-21T23:24:47.034Z,2.80
2022-12-21T23:27:46.718Z,2.80
2022-12-21T23:30:44.138Z,2.90
2022-12-21T23:33:29.509Z,2.90
2022-12-21T23:36:33.384Z,2.90
2022-12-21T23:39:19.064Z,2.90
2022-12-21T23:42:13.302Z,2.90
2022-12-21T23:44:40.158Z,2.90
2022-12-21T23:47:30.190Z,3.00
2022-12-21T23:50:15.785Z,3.00
2022-12-21T23:53:01.347Z,2.90
2022-12-21T23:55:46.987Z,3.00
2022-12-21T23:58:32.527Z,3.00
